Tropical Cyclones
[Index]
Main Index Home Page Stock Weather Photos Extreme Storms Discussion Storm News and Storm Chasing Reports Tropical Cyclones / Hurricanes / Typhoons Weather Data and Links Wild Fires / Bushfires Weather Observation Techniques Weather Picture Catalogue Tornado Pictures and Reports Stock Video Footage and DVDs for sale
Season 1987-1988 Tropical Cyclone HELY Track Map
Season 1987-1988 Summaries: [BoM-AU] [JTWC-AU] [JTWC-SIO] [JTWC-SPAC] [JTWC-SH]
<<- Previous TC | JTWC 1987-1988 Season | Next TC ->>

click for intensity scale information  Lat/long Grid: Show Hide

 Date Labels: Show Hide

Joint Typhoon Warning Centre Cyclone Data

Name: HELY

25 Mar 1988 00:00 UTC to 01 Apr 1988 06:00 UTC

    date/time    lat    long     hPa   cat  kts
1988-03-25 00   14.0    60.0                  20          
1988-03-25 06   14.4    58.8                  20          
1988-03-25 12   14.7    57.8                  20          
1988-03-25 18   14.8    56.7                  20          
1988-03-26 00   14.7    55.7                  20          
1988-03-26 06   14.6    54.8                  25          
1988-03-26 12   14.6    54.1                  25          
1988-03-26 18   14.6    53.3                  30          
1988-03-27 00   14.7    52.3                  30          
1988-03-27 06   15.0    51.4                  35          
1988-03-27 12   15.4    50.8            1     40          
1988-03-27 18   15.8    50.4                  35          
1988-03-28 00   16.2    49.9                  30          
1988-03-28 06   16.5    49.5                  30          
1988-03-28 12   16.6    48.8                  25          
1988-03-28 18   16.7    48.2                  25          
1988-03-29 00   16.8    47.1                  20          
1988-03-29 06   16.9    45.9                  20          
1988-03-29 12   17.0    44.7                  20          
1988-03-29 18   17.3    43.5                  20          
1988-03-30 00   17.7    42.4                  25          
1988-03-30 06   18.6    41.4                  25          
1988-03-30 12   19.2    40.9                  25          
1988-03-30 18   19.4    40.1                  25          
1988-03-31 00   19.2    39.4                  25          
1988-03-31 06   19.1    38.5                  25          
1988-03-31 12   19.6    38.1                  25          
1988-03-31 18   20.3    38.0                  25          
1988-04-01 00   20.7    37.9                  20          
1988-04-01 06   21.0    37.9                  20          
Winds are 1-min average.

Tropical cyclone tracks developed by Michael Bath using data from the Joint Typhoon Warning Centre Best Tracks and Google Maps.


[Australian Severe Weather index] [Copyright Notice] [Email Contacts] [Search This Site] [Privacy Policy]
Document: tropical_cyclone_hely.htm Updated: 18 September 2016